Red Wing, Minnesota
Current Conditions -  °F | °C
As of 1:51 AM on Saturday 25 Oct 2014 (Local Time) from KRGK Reporting Station
Haze Haze  
Wind Chill: 46°   Ceiling: NA
Heat Index: 46°   Visibility: 4mi
Dew Point: 45°   Wind: 3mph
Humidity: 93%   Direction: 290°WNW
Pressure: 29.91"   Gusts: NA
Location:  44.57°N, 92.53°W
Report Text: KRGK 250651Z AUTO 29003KT 4SM BR 08/07 A2991 RMK AO2
Loading
Personal Weather Stations






























Interactive Weather Map
Tropical Storm Tracking
New forecast layout! Learn more

10-Day Weather Forecast

Advertisements
Track Severe Weather on mobile